Terminal Aerodrome Forecast
Issued by NWS

Home | Current Version | Previous Version | Text Only | Print | Product List | Glossary On
Versions: 1 2 3 4 5 6 7 8 9 10 11 12 13 14 15 16 17 18 19 20 21 22 23 24
051
FTUS46 KLOX 151121
TAFPRB
TAF
KPRB 151121Z 1512/1612 VRB03KT P6SM BKN200
     FM151800 33006KT P6SM BKN200
     FM152200 21014G20KT P6SM BKN200
     FM160300 29010KT P6SM SCT200
     FM160700 VRB03KT P6SM BKN200=

USA.gov is the U.S. government's official web portal to all federal, state and local government web resources and services.